sensor_id;sensor_type;location;lat;lon;timestamp;P1;durP1;ratioP1;P2;durP2;ratioP2
70556;SDS011;58107;51.034;3.726;2022-07-09T00:00:35;17.52;;;8.40;;
70556;SDS011;58107;51.034;3.726;2022-07-09T00:03:03;23.95;;;8.98;;
70556;SDS011;58107;51.034;3.726;2022-07-09T00:05:31;15.48;;;9.15;;
70556;SDS011;58107;51.034;3.726;2022-07-09T00:07:58;20.08;;;9.53;;
70556;SDS011;58107;51.034;3.726;2022-07-09T00:10:26;29.00;;;11.12;;
70556;SDS011;58107;51.034;3.726;2022-07-09T00:12:53;38.20;;;11.20;;
70556;SDS011;58107;51.034;3.726;2022-07-09T00:15:21;44.60;;;12.23;;
70556;SDS011;58107;51.034;3.726;2022-07-09T00:17:51;30.12;;;12.07;;
70556;SDS011;58107;51.034;3.726;2022-07-09T00:20:19;34.27;;;13.20;;
70556;SDS011;58107;51.034;3.726;2022-07-09T00:22:46;40.78;;;14.85;;
70556;SDS011;58107;51.034;3.726;2022-07-09T00:25:14;33.63;;;14.33;;
70556;SDS011;58107;51.034;3.726;2022-07-09T00:27:42;23.80;;;14.00;;
70556;SDS011;58107;51.034;3.726;2022-07-09T00:30:10;22.48;;;14.95;;
70556;SDS011;58107;51.034;3.726;2022-07-09T00:32:38;23.95;;;14.87;;
70556;SDS011;58107;51.034;3.726;2022-07-09T00:35:06;30.72;;;15.03;;
70556;SDS011;58107;51.034;3.726;2022-07-09T00:37:34;25.97;;;15.13;;
70556;SDS011;58107;51.034;3.726;2022-07-09T00:40:02;20.25;;;14.28;;
70556;SDS011;58107;51.034;3.726;2022-07-09T00:42:30;21.65;;;14.65;;
70556;SDS011;58107;51.034;3.726;2022-07-09T00:44:58;27.20;;;15.68;;
70556;SDS011;58107;51.034;3.726;2022-07-09T00:47:25;26.90;;;14.93;;
70556;SDS011;58107;51.034;3.726;2022-07-09T00:49:53;22.25;;;14.87;;
70556;SDS011;58107;51.034;3.726;2022-07-09T00:52:21;24.07;;;17.50;;
70556;SDS011;58107;51.034;3.726;2022-07-09T00:54:50;24.67;;;18.32;;
70556;SDS011;58107;51.034;3.726;2022-07-09T00:57:18;25.75;;;17.07;;
70556;SDS011;58107;51.034;3.726;2022-07-09T00:59:46;22.52;;;16.50;;
70556;SDS011;58107;51.034;3.726;2022-07-09T01:02:14;22.30;;;16.32;;
70556;SDS011;58107;51.034;3.726;2022-07-09T01:04:43;22.13;;;17.82;;
70556;SDS011;58107;51.034;3.726;2022-07-09T01:07:11;23.55;;;16.02;;
70556;SDS011;58107;51.034;3.726;2022-07-09T01:09:39;22.20;;;16.17;;
70556;SDS011;58107;51.034;3.726;2022-07-09T01:12:07;24.52;;;16.35;;
70556;SDS011;58107;51.034;3.726;2022-07-09T01:14:35;26.68;;;15.80;;
70556;SDS011;58107;51.034;3.726;2022-07-09T01:17:04;23.18;;;15.95;;
70556;SDS011;58107;51.034;3.726;2022-07-09T01:19:32;21.20;;;16.75;;
70556;SDS011;58107;51.034;3.726;2022-07-09T01:22:01;27.65;;;18.02;;
70556;SDS011;58107;51.034;3.726;2022-07-09T01:24:29;29.65;;;19.48;;
70556;SDS011;58107;51.034;3.726;2022-07-09T01:26:57;27.85;;;19.23;;
70556;SDS011;58107;51.034;3.726;2022-07-09T01:29:24;33.53;;;20.70;;
70556;SDS011;58107;51.034;3.726;2022-07-09T01:31:52;31.97;;;20.60;;
70556;SDS011;58107;51.034;3.726;2022-07-09T01:34:20;28.32;;;20.00;;
70556;SDS011;58107;51.034;3.726;2022-07-09T01:36:48;26.35;;;20.27;;
70556;SDS011;58107;51.034;3.726;2022-07-09T01:39:15;28.77;;;20.40;;
70556;SDS011;58107;51.034;3.726;2022-07-09T01:41:43;31.00;;;22.50;;
70556;SDS011;58107;51.034;3.726;2022-07-09T01:44:11;29.55;;;21.93;;
70556;SDS011;58107;51.034;3.726;2022-07-09T01:46:39;27.62;;;21.60;;
70556;SDS011;58107;51.034;3.726;2022-07-09T01:49:06;28.05;;;22.98;;
70556;SDS011;58107;51.034;3.726;2022-07-09T01:51:34;35.00;;;25.15;;
70556;SDS011;58107;51.034;3.726;2022-07-09T01:54:02;33.00;;;25.60;;
70556;SDS011;58107;51.034;3.726;2022-07-09T01:56:30;35.68;;;27.30;;
70556;SDS011;58107;51.034;3.726;2022-07-09T01:58:58;35.70;;;26.20;;
70556;SDS011;58107;51.034;3.726;2022-07-09T02:01:26;38.48;;;28.47;;
70556;SDS011;58107;51.034;3.726;2022-07-09T02:03:54;42.48;;;27.80;;
70556;SDS011;58107;51.034;3.726;2022-07-09T02:06:21;35.98;;;26.90;;
70556;SDS011;58107;51.034;3.726;2022-07-09T02:08:49;35.58;;;26.80;;
70556;SDS011;58107;51.034;3.726;2022-07-09T02:11:18;33.98;;;26.52;;
70556;SDS011;58107;51.034;3.726;2022-07-09T02:13:45;34.65;;;25.65;;
70556;SDS011;58107;51.034;3.726;2022-07-09T02:16:13;35.08;;;24.98;;
70556;SDS011;58107;51.034;3.726;2022-07-09T02:18:41;35.10;;;25.65;;
70556;SDS011;58107;51.034;3.726;2022-07-09T02:21:09;30.40;;;25.55;;
70556;SDS011;58107;51.034;3.726;2022-07-09T02:23:37;32.67;;;26.12;;
70556;SDS011;58107;51.034;3.726;2022-07-09T02:26:05;34.10;;;25.62;;
70556;SDS011;58107;51.034;3.726;2022-07-09T02:28:32;36.10;;;26.30;;
70556;SDS011;58107;51.034;3.726;2022-07-09T02:31:00;33.10;;;25.88;;
70556;SDS011;58107;51.034;3.726;2022-07-09T02:33:28;35.25;;;26.95;;
70556;SDS011;58107;51.034;3.726;2022-07-09T02:35:57;38.43;;;27.40;;
70556;SDS011;58107;51.034;3.726;2022-07-09T02:38:25;36.58;;;27.50;;
70556;SDS011;58107;51.034;3.726;2022-07-09T02:40:52;40.40;;;29.32;;
70556;SDS011;58107;51.034;3.726;2022-07-09T02:43:20;37.88;;;28.47;;
70556;SDS011;58107;51.034;3.726;2022-07-09T02:45:48;35.80;;;28.77;;
70556;SDS011;58107;51.034;3.726;2022-07-09T02:48:17;37.15;;;28.73;;
70556;SDS011;58107;51.034;3.726;2022-07-09T02:50:44;38.08;;;27.98;;
70556;SDS011;58107;51.034;3.726;2022-07-09T02:53:12;37.70;;;27.32;;
70556;SDS011;58107;51.034;3.726;2022-07-09T02:55:40;39.75;;;27.17;;
70556;SDS011;58107;51.034;3.726;2022-07-09T02:58:07;33.60;;;25.20;;
70556;SDS011;58107;51.034;3.726;2022-07-09T03:00:36;34.48;;;26.23;;
70556;SDS011;58107;51.034;3.726;2022-07-09T03:03:06;31.73;;;24.77;;
70556;SDS011;58107;51.034;3.726;2022-07-09T03:05:34;34.65;;;25.88;;
70556;SDS011;58107;51.034;3.726;2022-07-09T03:08:02;36.55;;;26.60;;
70556;SDS011;58107;51.034;3.726;2022-07-09T03:10:30;33.25;;;27.62;;
70556;SDS011;58107;51.034;3.726;2022-07-09T03:12:58;41.20;;;28.52;;
70556;SDS011;58107;51.034;3.726;2022-07-09T03:15:25;30.90;;;27.32;;
70556;SDS011;58107;51.034;3.726;2022-07-09T03:17:53;35.73;;;28.77;;
70556;SDS011;58107;51.034;3.726;2022-07-09T03:20:26;40.50;;;29.95;;
70556;SDS011;58107;51.034;3.726;2022-07-09T03:22:53;39.25;;;28.25;;
70556;SDS011;58107;51.034;3.726;2022-07-09T03:25:21;39.63;;;29.77;;
70556;SDS011;58107;51.034;3.726;2022-07-09T03:27:49;36.50;;;28.20;;
70556;SDS011;58107;51.034;3.726;2022-07-09T03:30:16;38.90;;;27.93;;
70556;SDS011;58107;51.034;3.726;2022-07-09T03:32:45;36.83;;;28.73;;
70556;SDS011;58107;51.034;3.726;2022-07-09T03:35:12;41.28;;;29.45;;
70556;SDS011;58107;51.034;3.726;2022-07-09T03:37:40;37.08;;;30.17;;
70556;SDS011;58107;51.034;3.726;2022-07-09T03:40:08;36.05;;;30.35;;
70556;SDS011;58107;51.034;3.726;2022-07-09T03:42:38;42.70;;;30.57;;
70556;SDS011;58107;51.034;3.726;2022-07-09T03:45:06;39.45;;;31.17;;
70556;SDS011;58107;51.034;3.726;2022-07-09T03:47:34;40.15;;;30.50;;
70556;SDS011;58107;51.034;3.726;2022-07-09T03:50:02;42.05;;;28.50;;
70556;SDS011;58107;51.034;3.726;2022-07-09T03:52:31;39.30;;;29.50;;
70556;SDS011;58107;51.034;3.726;2022-07-09T03:54:59;38.48;;;30.12;;
70556;SDS011;58107;51.034;3.726;2022-07-09T03:57:26;41.58;;;30.08;;
70556;SDS011;58107;51.034;3.726;2022-07-09T03:59:54;40.00;;;29.15;;
70556;SDS011;58107;51.034;3.726;2022-07-09T04:02:22;36.88;;;29.77;;
70556;SDS011;58107;51.034;3.726;2022-07-09T04:04:50;38.78;;;30.48;;
70556;SDS011;58107;51.034;3.726;2022-07-09T04:07:18;36.60;;;30.82;;
70556;SDS011;58107;51.034;3.726;2022-07-09T04:09:46;39.83;;;31.30;;
70556;SDS011;58107;51.034;3.726;2022-07-09T04:12:13;43.90;;;31.73;;
70556;SDS011;58107;51.034;3.726;2022-07-09T04:14:41;42.38;;;30.82;;
70556;SDS011;58107;51.034;3.726;2022-07-09T04:17:09;38.38;;;30.55;;
70556;SDS011;58107;51.034;3.726;2022-07-09T04:19:36;37.08;;;31.25;;
70556;SDS011;58107;51.034;3.726;2022-07-09T04:22:04;39.40;;;30.92;;
70556;SDS011;58107;51.034;3.726;2022-07-09T04:24:32;37.58;;;30.43;;
70556;SDS011;58107;51.034;3.726;2022-07-09T04:27:00;33.95;;;29.12;;
70556;SDS011;58107;51.034;3.726;2022-07-09T04:29:28;35.70;;;29.55;;
70556;SDS011;58107;51.034;3.726;2022-07-09T04:31:55;39.38;;;30.90;;
70556;SDS011;58107;51.034;3.726;2022-07-09T04:34:23;39.10;;;30.35;;
70556;SDS011;58107;51.034;3.726;2022-07-09T04:36:51;37.25;;;30.62;;
70556;SDS011;58107;51.034;3.726;2022-07-09T04:39:19;39.13;;;31.02;;
70556;SDS011;58107;51.034;3.726;2022-07-09T04:41:49;41.30;;;31.57;;
70556;SDS011;58107;51.034;3.726;2022-07-09T04:44:17;37.28;;;30.35;;
70556;SDS011;58107;51.034;3.726;2022-07-09T04:46:44;35.25;;;29.85;;
70556;SDS011;58107;51.034;3.726;2022-07-09T04:49:12;37.05;;;30.40;;
70556;SDS011;58107;51.034;3.726;2022-07-09T04:51:40;34.08;;;29.32;;
70556;SDS011;58107;51.034;3.726;2022-07-09T04:54:08;40.15;;;29.98;;
70556;SDS011;58107;51.034;3.726;2022-07-09T04:56:36;38.58;;;28.55;;
70556;SDS011;58107;51.034;3.726;2022-07-09T04:59:03;36.25;;;29.87;;
70556;SDS011;58107;51.034;3.726;2022-07-09T05:01:31;40.35;;;31.40;;
70556;SDS011;58107;51.034;3.726;2022-07-09T05:03:59;36.65;;;30.17;;
70556;SDS011;58107;51.034;3.726;2022-07-09T05:06:26;39.80;;;29.50;;
70556;SDS011;58107;51.034;3.726;2022-07-09T05:08:54;38.78;;;30.23;;
70556;SDS011;58107;51.034;3.726;2022-07-09T05:11:22;45.67;;;29.65;;
70556;SDS011;58107;51.034;3.726;2022-07-09T05:13:51;39.20;;;30.32;;
70556;SDS011;58107;51.034;3.726;2022-07-09T05:16:19;38.15;;;30.37;;
70556;SDS011;58107;51.034;3.726;2022-07-09T05:18:46;37.65;;;29.85;;
70556;SDS011;58107;51.034;3.726;2022-07-09T05:21:15;39.75;;;30.65;;
70556;SDS011;58107;51.034;3.726;2022-07-09T05:23:43;37.05;;;29.40;;
70556;SDS011;58107;51.034;3.726;2022-07-09T05:26:10;37.90;;;29.55;;
70556;SDS011;58107;51.034;3.726;2022-07-09T05:28:38;39.90;;;31.55;;
70556;SDS011;58107;51.034;3.726;2022-07-09T05:31:07;41.23;;;31.15;;
70556;SDS011;58107;51.034;3.726;2022-07-09T05:33:35;38.02;;;31.35;;
70556;SDS011;58107;51.034;3.726;2022-07-09T05:36:03;37.45;;;30.43;;
70556;SDS011;58107;51.034;3.726;2022-07-09T05:38:31;39.13;;;30.62;;
70556;SDS011;58107;51.034;3.726;2022-07-09T05:40:59;39.58;;;30.35;;
70556;SDS011;58107;51.034;3.726;2022-07-09T05:43:27;44.48;;;31.50;;
70556;SDS011;58107;51.034;3.726;2022-07-09T05:45:54;39.78;;;30.45;;
70556;SDS011;58107;51.034;3.726;2022-07-09T05:48:22;38.60;;;30.45;;
70556;SDS011;58107;51.034;3.726;2022-07-09T05:50:50;39.10;;;30.57;;
70556;SDS011;58107;51.034;3.726;2022-07-09T05:53:17;41.13;;;30.45;;
70556;SDS011;58107;51.034;3.726;2022-07-09T05:55:45;40.30;;;31.35;;
70556;SDS011;58107;51.034;3.726;2022-07-09T05:58:13;42.65;;;31.17;;
70556;SDS011;58107;51.034;3.726;2022-07-09T06:00:42;40.40;;;30.70;;
70556;SDS011;58107;51.034;3.726;2022-07-09T06:03:09;39.75;;;31.12;;
70556;SDS011;58107;51.034;3.726;2022-07-09T06:05:37;37.58;;;29.87;;
70556;SDS011;58107;51.034;3.726;2022-07-09T06:08:05;42.78;;;30.05;;
70556;SDS011;58107;51.034;3.726;2022-07-09T06:10:32;39.30;;;28.50;;
70556;SDS011;58107;51.034;3.726;2022-07-09T06:13:00;37.48;;;27.05;;
70556;SDS011;58107;51.034;3.726;2022-07-09T06:15:28;37.67;;;28.83;;
70556;SDS011;58107;51.034;3.726;2022-07-09T06:17:56;34.63;;;25.90;;
70556;SDS011;58107;51.034;3.726;2022-07-09T06:20:24;32.48;;;24.47;;
70556;SDS011;58107;51.034;3.726;2022-07-09T06:22:52;34.13;;;24.65;;
70556;SDS011;58107;51.034;3.726;2022-07-09T06:25:20;27.32;;;21.70;;
70556;SDS011;58107;51.034;3.726;2022-07-09T06:27:48;33.25;;;22.90;;
70556;SDS011;58107;51.034;3.726;2022-07-09T06:30:16;27.75;;;21.65;;
70556;SDS011;58107;51.034;3.726;2022-07-09T06:32:43;30.40;;;23.18;;
70556;SDS011;58107;51.034;3.726;2022-07-09T06:35:11;29.65;;;23.12;;
70556;SDS011;58107;51.034;3.726;2022-07-09T06:37:39;28.67;;;22.25;;
70556;SDS011;58107;51.034;3.726;2022-07-09T06:40:07;31.07;;;21.62;;
70556;SDS011;58107;51.034;3.726;2022-07-09T06:42:35;30.43;;;22.17;;
70556;SDS011;58107;51.034;3.726;2022-07-09T06:45:03;29.98;;;22.42;;
70556;SDS011;58107;51.034;3.726;2022-07-09T06:47:32;30.53;;;22.93;;
70556;SDS011;58107;51.034;3.726;2022-07-09T06:49:59;31.12;;;24.18;;
70556;SDS011;58107;51.034;3.726;2022-07-09T06:52:27;30.27;;;23.20;;
70556;SDS011;58107;51.034;3.726;2022-07-09T06:54:55;33.42;;;24.63;;
70556;SDS011;58107;51.034;3.726;2022-07-09T06:57:22;31.10;;;24.85;;
70556;SDS011;58107;51.034;3.726;2022-07-09T06:59:50;36.23;;;24.57;;
70556;SDS011;58107;51.034;3.726;2022-07-09T07:02:18;33.83;;;26.23;;
70556;SDS011;58107;51.034;3.726;2022-07-09T07:04:47;36.68;;;27.60;;
70556;SDS011;58107;51.034;3.726;2022-07-09T07:07:15;34.98;;;25.25;;
70556;SDS011;58107;51.034;3.726;2022-07-09T07:09:42;40.50;;;27.58;;
70556;SDS011;58107;51.034;3.726;2022-07-09T07:12:10;37.67;;;28.00;;
70556;SDS011;58107;51.034;3.726;2022-07-09T07:14:38;34.88;;;28.67;;
70556;SDS011;58107;51.034;3.726;2022-07-09T07:17:06;42.38;;;31.00;;
70556;SDS011;58107;51.034;3.726;2022-07-09T07:19:33;46.23;;;33.02;;
70556;SDS011;58107;51.034;3.726;2022-07-09T07:22:01;44.58;;;33.73;;
70556;SDS011;58107;51.034;3.726;2022-07-09T07:24:29;44.20;;;32.15;;
70556;SDS011;58107;51.034;3.726;2022-07-09T07:26:57;45.85;;;34.90;;
70556;SDS011;58107;51.034;3.726;2022-07-09T07:29:25;42.58;;;33.90;;
70556;SDS011;58107;51.034;3.726;2022-07-09T07:31:53;42.43;;;34.83;;
70556;SDS011;58107;51.034;3.726;2022-07-09T07:34:23;45.83;;;35.17;;
70556;SDS011;58107;51.034;3.726;2022-07-09T07:36:51;47.05;;;33.02;;
70556;SDS011;58107;51.034;3.726;2022-07-09T07:39:18;43.02;;;33.40;;
70556;SDS011;58107;51.034;3.726;2022-07-09T07:41:50;37.23;;;32.15;;
70556;SDS011;58107;51.034;3.726;2022-07-09T07:44:18;42.38;;;33.40;;
70556;SDS011;58107;51.034;3.726;2022-07-09T07:46:46;42.90;;;33.83;;
70556;SDS011;58107;51.034;3.726;2022-07-09T07:49:14;44.08;;;33.85;;
70556;SDS011;58107;51.034;3.726;2022-07-09T07:51:42;44.20;;;35.30;;
70556;SDS011;58107;51.034;3.726;2022-07-09T07:54:10;44.85;;;34.98;;
70556;SDS011;58107;51.034;3.726;2022-07-09T07:56:40;39.03;;;32.83;;
70556;SDS011;58107;51.034;3.726;2022-07-09T07:59:08;46.30;;;34.58;;
70556;SDS011;58107;51.034;3.726;2022-07-09T08:01:36;46.35;;;35.92;;
70556;SDS011;58107;51.034;3.726;2022-07-09T08:04:04;52.03;;;37.58;;
70556;SDS011;58107;51.034;3.726;2022-07-09T08:06:32;44.98;;;34.35;;
70556;SDS011;58107;51.034;3.726;2022-07-09T08:09:01;47.55;;;37.40;;
70556;SDS011;58107;51.034;3.726;2022-07-09T08:11:30;48.67;;;36.33;;
70556;SDS011;58107;51.034;3.726;2022-07-09T08:13:57;49.90;;;34.80;;
70556;SDS011;58107;51.034;3.726;2022-07-09T08:16:25;44.75;;;33.38;;
70556;SDS011;58107;51.034;3.726;2022-07-09T08:18:53;45.58;;;35.63;;
70556;SDS011;58107;51.034;3.726;2022-07-09T08:21:20;40.58;;;33.05;;
70556;SDS011;58107;51.034;3.726;2022-07-09T08:23:48;43.10;;;32.55;;
70556;SDS011;58107;51.034;3.726;2022-07-09T08:26:21;41.88;;;32.35;;
70556;SDS011;58107;51.034;3.726;2022-07-09T08:28:53;42.23;;;30.25;;
70556;SDS011;58107;51.034;3.726;2022-07-09T08:31:21;45.48;;;32.58;;
70556;SDS011;58107;51.034;3.726;2022-07-09T08:34:00;38.28;;;31.85;;
70556;SDS011;58107;51.034;3.726;2022-07-09T08:36:28;44.03;;;29.33;;
70556;SDS011;58107;51.034;3.726;2022-07-09T08:38:56;35.95;;;29.00;;
70556;SDS011;58107;51.034;3.726;2022-07-09T08:41:23;32.55;;;26.50;;
70556;SDS011;58107;51.034;3.726;2022-07-09T08:43:51;32.10;;;24.50;;
70556;SDS011;58107;51.034;3.726;2022-07-09T08:46:20;29.63;;;22.70;;
70556;SDS011;58107;51.034;3.726;2022-07-09T08:48:48;26.27;;;20.27;;
70556;SDS011;58107;51.034;3.726;2022-07-09T08:51:17;20.75;;;16.75;;
70556;SDS011;58107;51.034;3.726;2022-07-09T08:53:46;19.25;;;14.50;;
70556;SDS011;58107;51.034;3.726;2022-07-09T08:56:14;21.50;;;13.50;;
70556;SDS011;58107;51.034;3.726;2022-07-09T08:58:41;20.02;;;13.98;;
70556;SDS011;58107;51.034;3.726;2022-07-09T09:01:13;22.98;;;13.83;;
70556;SDS011;58107;51.034;3.726;2022-07-09T09:03:42;14.10;;;9.85;;
70556;SDS011;58107;51.034;3.726;2022-07-09T09:06:11;10.60;;;7.53;;
70556;SDS011;58107;51.034;3.726;2022-07-09T09:08:41;8.40;;;5.92;;
70556;SDS011;58107;51.034;3.726;2022-07-09T09:11:16;12.55;;;4.00;;
70556;SDS011;58107;51.034;3.726;2022-07-09T09:13:41;4.40;;;2.55;;
70556;SDS011;58107;51.034;3.726;2022-07-09T09:16:13;4.58;;;2.17;;
70556;SDS011;58107;51.034;3.726;2022-07-09T09:18:43;4.33;;;2.65;;
70556;SDS011;58107;51.034;3.726;2022-07-09T09:21:15;4.60;;;1.98;;
70556;SDS011;58107;51.034;3.726;2022-07-09T09:23:45;5.75;;;2.27;;
70556;SDS011;58107;51.034;3.726;2022-07-09T09:26:22;6.35;;;2.00;;
70556;SDS011;58107;51.034;3.726;2022-07-09T09:28:52;7.03;;;2.02;;
70556;SDS011;58107;51.034;3.726;2022-07-09T09:36:35;4.42;;;2.20;;
70556;SDS011;58107;51.034;3.726;2022-07-09T09:39:14;4.72;;;2.15;;
70556;SDS011;58107;51.034;3.726;2022-07-09T09:41:46;6.22;;;2.30;;
70556;SDS011;58107;51.034;3.726;2022-07-09T09:44:20;4.00;;;2.40;;
70556;SDS011;58107;51.034;3.726;2022-07-09T09:46:45;3.35;;;2.02;;
70556;SDS011;58107;51.034;3.726;2022-07-09T09:49:14;4.17;;;2.42;;
70556;SDS011;58107;51.034;3.726;2022-07-09T09:51:46;3.43;;;2.30;;
70556;SDS011;58107;51.034;3.726;2022-07-09T09:54:16;6.72;;;2.50;;
70556;SDS011;58107;51.034;3.726;2022-07-09T09:56:45;6.12;;;2.20;;
70556;SDS011;58107;51.034;3.726;2022-07-09T09:59:13;2.58;;;1.77;;
70556;SDS011;58107;51.034;3.726;2022-07-09T10:01:42;3.77;;;2.05;;
70556;SDS011;58107;51.034;3.726;2022-07-09T10:04:10;3.45;;;2.10;;
70556;SDS011;58107;51.034;3.726;2022-07-09T10:06:41;3.80;;;1.95;;
70556;SDS011;58107;51.034;3.726;2022-07-09T10:09:11;2.40;;;1.55;;
70556;SDS011;58107;51.034;3.726;2022-07-09T10:11:40;5.47;;;1.70;;
70556;SDS011;58107;51.034;3.726;2022-07-09T10:14:15;4.35;;;1.75;;
70556;SDS011;58107;51.034;3.726;2022-07-09T10:16:44;6.97;;;1.82;;
70556;SDS011;58107;51.034;3.726;2022-07-09T10:19:21;4.53;;;1.65;;
70556;SDS011;58107;51.034;3.726;2022-07-09T10:21:53;3.85;;;1.67;;
70556;SDS011;58107;51.034;3.726;2022-07-09T10:24:25;4.05;;;1.52;;
70556;SDS011;58107;51.034;3.726;2022-07-09T10:27:09;5.95;;;1.75;;
70556;SDS011;58107;51.034;3.726;2022-07-09T10:29:54;5.53;;;1.82;;
70556;SDS011;58107;51.034;3.726;2022-07-09T10:32:28;6.42;;;1.80;;
70556;SDS011;58107;51.034;3.726;2022-07-09T10:34:58;3.87;;;1.30;;
70556;SDS011;58107;51.034;3.726;2022-07-09T10:40:18;6.55;;;1.60;;
70556;SDS011;58107;51.034;3.726;2022-07-09T10:43:00;6.60;;;1.70;;
70556;SDS011;58107;51.034;3.726;2022-07-09T10:45:29;4.72;;;1.50;;
70556;SDS011;58107;51.034;3.726;2022-07-09T10:48:04;5.25;;;1.50;;
70556;SDS011;58107;51.034;3.726;2022-07-09T10:50:39;4.65;;;1.60;;
70556;SDS011;58107;51.034;3.726;2022-07-09T10:53:08;2.98;;;1.15;;
70556;SDS011;58107;51.034;3.726;2022-07-09T10:55:37;6.90;;;1.70;;
70556;SDS011;58107;51.034;3.726;2022-07-09T10:58:17;3.22;;;1.37;;
70556;SDS011;58107;51.034;3.726;2022-07-09T11:00:44;1.75;;;1.22;;
70556;SDS011;58107;51.034;3.726;2022-07-09T11:03:12;12.25;;;1.87;;
70556;SDS011;58107;51.034;3.726;2022-07-09T11:05:45;3.70;;;1.35;;
70556;SDS011;58107;51.034;3.726;2022-07-09T11:08:13;3.10;;;1.50;;
70556;SDS011;58107;51.034;3.726;2022-07-09T11:10:41;5.05;;;1.40;;
70556;SDS011;58107;51.034;3.726;2022-07-09T11:13:08;4.33;;;1.70;;
70556;SDS011;58107;51.034;3.726;2022-07-09T11:15:37;2.80;;;1.40;;
70556;SDS011;58107;51.034;3.726;2022-07-09T11:18:09;3.73;;;1.40;;
70556;SDS011;58107;51.034;3.726;2022-07-09T11:20:46;3.12;;;1.50;;
70556;SDS011;58107;51.034;3.726;2022-07-09T11:23:16;5.33;;;1.50;;
70556;SDS011;58107;51.034;3.726;2022-07-09T11:25:41;4.53;;;1.65;;
70556;SDS011;58107;51.034;3.726;2022-07-09T11:28:31;5.60;;;1.90;;
70556;SDS011;58107;51.034;3.726;2022-07-09T11:31:02;11.18;;;1.90;;
70556;SDS011;58107;51.034;3.726;2022-07-09T11:33:28;12.25;;;2.20;;
70556;SDS011;58107;51.034;3.726;2022-07-09T11:36:16;3.62;;;1.37;;
70556;SDS011;58107;51.034;3.726;2022-07-09T11:38:50;3.80;;;1.87;;
70556;SDS011;58107;51.034;3.726;2022-07-09T11:41:19;4.30;;;1.77;;
70556;SDS011;58107;51.034;3.726;2022-07-09T11:43:47;6.28;;;2.10;;
70556;SDS011;58107;51.034;3.726;2022-07-09T11:46:16;2.90;;;1.45;;
70556;SDS011;58107;51.034;3.726;2022-07-09T11:48:48;7.07;;;1.60;;
70556;SDS011;58107;51.034;3.726;2022-07-09T11:51:32;3.37;;;1.30;;
70556;SDS011;58107;51.034;3.726;2022-07-09T11:54:01;4.87;;;1.35;;
70556;SDS011;58107;51.034;3.726;2022-07-09T11:56:44;5.90;;;1.45;;
70556;SDS011;58107;51.034;3.726;2022-07-09T11:59:14;3.70;;;1.47;;
70556;SDS011;58107;51.034;3.726;2022-07-09T12:01:44;3.87;;;1.25;;
70556;SDS011;58107;51.034;3.726;2022-07-09T12:04:18;3.20;;;1.42;;
70556;SDS011;58107;51.034;3.726;2022-07-09T12:06:50;2.50;;;1.50;;
70556;SDS011;58107;51.034;3.726;2022-07-09T12:09:27;4.08;;;1.90;;
70556;SDS011;58107;51.034;3.726;2022-07-09T12:11:56;4.45;;;1.65;;
70556;SDS011;58107;51.034;3.726;2022-07-09T12:14:25;5.53;;;2.37;;
70556;SDS011;58107;51.034;3.726;2022-07-09T12:16:52;11.25;;;2.17;;
70556;SDS011;58107;51.034;3.726;2022-07-09T12:19:20;6.70;;;2.15;;
70556;SDS011;58107;51.034;3.726;2022-07-09T12:24:35;7.55;;;2.12;;
70556;SDS011;58107;51.034;3.726;2022-07-09T12:27:02;7.45;;;2.10;;
70556;SDS011;58107;51.034;3.726;2022-07-09T12:29:30;4.17;;;1.67;;
70556;SDS011;58107;51.034;3.726;2022-07-09T12:31:58;5.42;;;1.72;;
70556;SDS011;58107;51.034;3.726;2022-07-09T12:34:26;3.30;;;1.45;;
70556;SDS011;58107;51.034;3.726;2022-07-09T12:36:54;2.22;;;1.35;;
70556;SDS011;58107;51.034;3.726;2022-07-09T12:39:22;7.90;;;1.50;;
70556;SDS011;58107;51.034;3.726;2022-07-09T12:41:50;4.47;;;1.40;;
70556;SDS011;58107;51.034;3.726;2022-07-09T12:44:17;3.80;;;1.40;;
70556;SDS011;58107;51.034;3.726;2022-07-09T12:46:45;2.12;;;1.02;;
70556;SDS011;58107;51.034;3.726;2022-07-09T12:49:13;3.98;;;1.50;;
70556;SDS011;58107;51.034;3.726;2022-07-09T12:51:41;6.37;;;1.42;;
70556;SDS011;58107;51.034;3.726;2022-07-09T12:54:09;5.37;;;1.20;;
70556;SDS011;58107;51.034;3.726;2022-07-09T12:56:37;4.22;;;1.40;;
70556;SDS011;58107;51.034;3.726;2022-07-09T12:59:05;5.58;;;1.42;;
70556;SDS011;58107;51.034;3.726;2022-07-09T13:01:32;5.28;;;1.75;;
70556;SDS011;58107;51.034;3.726;2022-07-09T13:04:00;5.50;;;1.40;;
70556;SDS011;58107;51.034;3.726;2022-07-09T13:06:28;6.12;;;1.70;;
70556;SDS011;58107;51.034;3.726;2022-07-09T13:09:04;4.95;;;1.45;;
70556;SDS011;58107;51.034;3.726;2022-07-09T13:11:29;5.78;;;1.37;;
70556;SDS011;58107;51.034;3.726;2022-07-09T13:13:57;4.95;;;1.50;;
70556;SDS011;58107;51.034;3.726;2022-07-09T13:16:25;5.50;;;1.60;;
70556;SDS011;58107;51.034;3.726;2022-07-09T13:18:53;7.45;;;1.35;;
70556;SDS011;58107;51.034;3.726;2022-07-09T13:21:22;6.80;;;1.32;;
70556;SDS011;58107;51.034;3.726;2022-07-09T13:23:50;7.62;;;1.60;;
70556;SDS011;58107;51.034;3.726;2022-07-09T13:26:19;3.62;;;1.40;;
70556;SDS011;58107;51.034;3.726;2022-07-09T13:28:46;6.85;;;1.57;;
70556;SDS011;58107;51.034;3.726;2022-07-09T13:31:14;5.72;;;1.37;;
70556;SDS011;58107;51.034;3.726;2022-07-09T13:33:42;5.55;;;1.47;;
70556;SDS011;58107;51.034;3.726;2022-07-09T13:36:10;7.08;;;1.70;;
70556;SDS011;58107;51.034;3.726;2022-07-09T13:38:37;6.22;;;1.45;;
70556;SDS011;58107;51.034;3.726;2022-07-09T13:41:05;6.17;;;1.67;;
70556;SDS011;58107;51.034;3.726;2022-07-09T13:43:33;5.92;;;1.60;;
70556;SDS011;58107;51.034;3.726;2022-07-09T13:46:01;4.90;;;1.55;;
70556;SDS011;58107;51.034;3.726;2022-07-09T13:48:30;8.50;;;1.90;;
70556;SDS011;58107;51.034;3.726;2022-07-09T13:50:57;9.33;;;1.67;;
70556;SDS011;58107;51.034;3.726;2022-07-09T13:53:26;6.50;;;1.60;;
70556;SDS011;58107;51.034;3.726;2022-07-09T13:55:55;7.08;;;1.80;;
70556;SDS011;58107;51.034;3.726;2022-07-09T13:58:23;6.70;;;1.62;;
70556;SDS011;58107;51.034;3.726;2022-07-09T14:00:51;5.17;;;1.20;;
70556;SDS011;58107;51.034;3.726;2022-07-09T14:03:19;6.03;;;1.57;;
70556;SDS011;58107;51.034;3.726;2022-07-09T14:05:46;8.28;;;1.82;;
70556;SDS011;58107;51.034;3.726;2022-07-09T14:08:14;4.87;;;1.50;;
70556;SDS011;58107;51.034;3.726;2022-07-09T14:10:42;7.12;;;1.57;;
70556;SDS011;58107;51.034;3.726;2022-07-09T14:13:09;9.05;;;1.55;;
70556;SDS011;58107;51.034;3.726;2022-07-09T14:15:37;7.42;;;1.90;;
70556;SDS011;58107;51.034;3.726;2022-07-09T14:18:05;6.22;;;1.70;;
70556;SDS011;58107;51.034;3.726;2022-07-09T14:20:32;4.37;;;1.45;;
70556;SDS011;58107;51.034;3.726;2022-07-09T14:23:00;6.92;;;1.72;;
70556;SDS011;58107;51.034;3.726;2022-07-09T14:25:28;8.73;;;1.80;;
70556;SDS011;58107;51.034;3.726;2022-07-09T14:27:55;10.72;;;2.65;;
70556;SDS011;58107;51.034;3.726;2022-07-09T14:30:23;6.78;;;2.00;;
70556;SDS011;58107;51.034;3.726;2022-07-09T14:32:51;9.48;;;2.00;;
70556;SDS011;58107;51.034;3.726;2022-07-09T14:35:19;9.18;;;2.12;;
70556;SDS011;58107;51.034;3.726;2022-07-09T14:37:47;6.12;;;2.12;;
70556;SDS011;58107;51.034;3.726;2022-07-09T14:40:14;7.60;;;2.15;;
70556;SDS011;58107;51.034;3.726;2022-07-09T14:42:42;10.60;;;1.90;;
70556;SDS011;58107;51.034;3.726;2022-07-09T14:45:10;6.55;;;2.05;;
70556;SDS011;58107;51.034;3.726;2022-07-09T14:47:38;7.90;;;1.90;;
70556;SDS011;58107;51.034;3.726;2022-07-09T14:50:06;7.58;;;1.82;;